createdAt,value
2023-02-24T00:02:06.086Z,9.30
2023-02-24T00:04:39.404Z,9.30
2023-02-24T00:07:06.868Z,9.30
2023-02-24T00:09:33.803Z,9.40
2023-02-24T00:12:08.859Z,9.30
2023-02-24T00:14:37.590Z,9.30
2023-02-24T00:17:07.956Z,9.30
2023-02-24T00:19:34.733Z,9.30
2023-02-24T00:22:02.982Z,9.30
2023-02-24T00:24:30.403Z,9.30
2023-02-24T00:27:01.109Z,9.40
2023-02-24T00:29:29.775Z,9.30
2023-02-24T00:32:03.105Z,9.30
2023-02-24T00:34:31.431Z,9.30
2023-02-24T00:36:58.688Z,9.30
2023-02-24T00:39:30.596Z,9.30
2023-02-24T00:42:06.841Z,9.30
2023-02-24T00:44:40.094Z,9.30
2023-02-24T00:47:09.011Z,9.30
2023-02-24T00:49:42.711Z,9.30
2023-02-24T00:52:19.160Z,9.40
2023-02-24T00:54:49.700Z,9.30
2023-02-24T00:57:21.277Z,9.30
2023-02-24T00:59:51.572Z,9.30
2023-02-24T01:02:18.914Z,9.40
2023-02-24T01:04:45.984Z,9.30
2023-02-24T01:07:13.890Z,9.40
2023-02-24T01:09:41.690Z,9.40
2023-02-24T01:12:22.302Z,9.40
2023-02-24T01:14:51.955Z,9.40
2023-02-24T01:17:20.298Z,9.40
2023-02-24T01:19:49.605Z,9.40
2023-02-24T01:22:19.667Z,9.40
2023-02-24T01:24:46.687Z,9.40
2023-02-24T01:27:17.576Z,9.40
2023-02-24T01:29:45.010Z,9.50
2023-02-24T01:32:20.702Z,9.50
2023-02-24T01:34:51.431Z,9.50
2023-02-24T01:37:19.469Z,9.50
2023-02-24T01:39:47.366Z,9.50
2023-02-24T01:42:19.567Z,9.50
2023-02-24T01:44:46.740Z,9.50
2023-02-24T01:47:16.119Z,9.50
2023-02-24T01:49:47.185Z,9.60
2023-02-24T01:52:18.906Z,9.50
2023-02-24T01:55:14.491Z,9.50
2023-02-24T01:57:42.231Z,9.50
2023-02-24T02:00:11.846Z,9.50
2023-02-24T02:02:47.443Z,9.50
2023-02-24T02:05:14.879Z,9.50
2023-02-24T02:07:43.397Z,9.50
2023-02-24T02:10:11.111Z,9.50
2023-02-24T02:12:44.235Z,9.50
2023-02-24T02:15:15.376Z,9.50
2023-02-24T02:17:48.968Z,9.50
2023-02-24T02:20:55.821Z,9.50
2023-02-24T02:24:00.183Z,9.50
2023-02-24T02:26:37.892Z,9.50
2023-02-24T02:29:27.436Z,9.50
2023-02-24T02:32:31.413Z,9.50
2023-02-24T02:35:19.147Z,9.50
2023-02-24T02:37:45.869Z,9.50
2023-02-24T02:40:23.108Z,9.50
2023-02-24T02:43:01.498Z,9.50
2023-02-24T02:45:51.405Z,9.40
2023-02-24T02:48:25.669Z,9.40
2023-02-24T02:50:54.933Z,9.40
2023-02-24T02:53:35.105Z,9.40
2023-02-24T02:56:12.688Z,9.40
2023-02-24T02:58:47.848Z,9.40
2023-02-24T03:01:38.248Z,9.40
2023-02-24T03:04:08.522Z,9.40
2023-02-24T03:06:43.179Z,9.50
2023-02-24T03:09:18.151Z,9.50
2023-02-24T03:11:49.223Z,9.40
2023-02-24T03:14:19.312Z,9.40
2023-02-24T03:16:51.961Z,9.40
2023-02-24T03:19:30.934Z,9.40
2023-02-24T03:22:14.589Z,9.40
2023-02-24T03:24:44.811Z,9.40
2023-02-24T03:27:20.660Z,9.40
2023-02-24T03:29:55.463Z,9.40
2023-02-24T03:32:33.349Z,9.40
2023-02-24T03:35:04.226Z,9.50
2023-02-24T03:37:33.552Z,9.50
2023-02-24T03:40:10.820Z,9.40
2023-02-24T03:42:43.256Z,9.50
2023-02-24T03:45:10.820Z,9.40
2023-02-24T03:47:38.797Z,9.40
2023-02-24T03:50:17.717Z,9.50
2023-02-24T03:53:06.464Z,9.40
2023-02-24T03:55:58.900Z,9.50
2023-02-24T03:58:58.137Z,9.50
2023-02-24T04:01:56.145Z,9.50
2023-02-24T04:04:31.516Z,9.50
2023-02-24T04:07:33.003Z,9.50
2023-02-24T04:10:09.404Z,9.50
2023-02-24T04:12:54.172Z,9.50
2023-02-24T04:15:32.794Z,9.50
2023-02-24T04:18:13.760Z,9.50
2023-02-24T04:20:44.570Z,9.50
2023-02-24T04:23:16.737Z,9.50
2023-02-24T04:25:49.076Z,9.40
2023-02-24T04:28:22.270Z,9.40
2023-02-24T04:30:56.157Z,9.40
2023-02-24T04:33:23.252Z,9.40
2023-02-24T04:35:51.356Z,9.40
2023-02-24T04:38:19.886Z,9.30
2023-02-24T04:40:49.731Z,9.30
2023-02-24T04:43:16.712Z,9.30
2023-02-24T04:45:44.231Z,9.30
2023-02-24T04:48:13.054Z,9.30
2023-02-24T04:50:43.778Z,9.30
2023-02-24T04:53:15.919Z,9.20
2023-02-24T04:55:48.582Z,9.20
2023-02-24T04:58:19.547Z,9.10
2023-02-24T05:00:48.996Z,9.10
2023-02-24T05:03:17.219Z,9.10
2023-02-24T05:06:00.148Z,9.10
2023-02-24T05:08:28.343Z,9.00
2023-02-24T05:11:01.028Z,9.00
2023-02-24T05:13:31.603Z,8.90
2023-02-24T05:16:04.523Z,8.90
2023-02-24T05:18:36.935Z,8.90
2023-02-24T05:21:28.174Z,8.90
2023-02-24T05:23:55.266Z,8.80
2023-02-24T05:26:26.350Z,8.80
2023-02-24T05:28:56.506Z,8.90
2023-02-24T05:31:28.150Z,8.80
2023-02-24T05:33:59.870Z,8.90
2023-02-24T05:36:30.270Z,8.90
2023-02-24T05:39:12.237Z,8.90
2023-02-24T05:41:41.930Z,8.80
2023-02-24T05:44:12.822Z,8.80
2023-02-24T05:46:42.122Z,8.90
2023-02-24T05:49:23.961Z,8.80
2023-02-24T05:51:55.560Z,8.80
2023-02-24T05:54:29.510Z,8.80
2023-02-24T05:57:00.244Z,8.80
2023-02-24T05:59:32.610Z,8.80
2023-02-24T06:02:07.447Z,8.90
2023-02-24T06:04:51.349Z,8.80
2023-02-24T06:07:22.639Z,8.90
2023-02-24T06:09:53.858Z,8.90
2023-02-24T06:12:29.570Z,8.90
2023-02-24T06:14:58.232Z,8.90
2023-02-24T06:17:25.609Z,8.90
2023-02-24T06:19:53.697Z,8.90
2023-02-24T06:22:23.591Z,8.90
2023-02-24T06:24:51.098Z,8.90
2023-02-24T06:27:21.520Z,8.90
2023-02-24T06:29:53.834Z,8.90
2023-02-24T06:32:24.616Z,8.90
2023-02-24T06:34:52.517Z,8.90
2023-02-24T06:37:19.363Z,8.90
2023-02-24T06:39:46.453Z,8.90
2023-02-24T06:42:13.957Z,9.00
2023-02-24T06:44:41.552Z,8.90
2023-02-24T06:47:13.119Z,9.00
2023-02-24T06:49:40.437Z,8.90
2023-02-24T06:52:08.610Z,9.00
2023-02-24T06:54:36.194Z,8.90
2023-02-24T06:57:03.939Z,9.00
2023-02-24T06:59:31.169Z,9.00
2023-02-24T07:01:59.642Z,9.00
2023-02-24T07:04:28.968Z,9.00
2023-02-24T07:07:02.741Z,9.00
2023-02-24T07:09:30.820Z,9.00
2023-02-24T07:11:58.751Z,9.00
2023-02-24T07:14:27.884Z,9.00
2023-02-24T07:16:55.237Z,9.00
2023-02-24T07:19:25.598Z,9.00
2023-02-24T07:21:59.957Z,9.10
2023-02-24T07:24:39.241Z,9.10
2023-02-24T07:27:21.722Z,9.10
2023-02-24T07:29:52.576Z,9.10
2023-02-24T07:32:22.344Z,9.10
2023-02-24T07:34:49.193Z,9.10
2023-02-24T07:37:16.820Z,9.10
2023-02-24T07:39:43.883Z,9.10
2023-02-24T07:42:13.730Z,9.10
2023-02-24T07:44:46.430Z,9.10
2023-02-24T07:47:15.628Z,9.10
2023-02-24T07:49:42.557Z,9.10
2023-02-24T07:52:11.434Z,9.10
2023-02-24T07:54:39.256Z,9.10
2023-02-24T07:57:06.192Z,9.10
2023-02-24T07:59:38.223Z,9.20
2023-02-24T08:02:07.692Z,9.20
2023-02-24T08:04:36.451Z,9.20
2023-02-24T08:07:04.187Z,9.20
2023-02-24T08:09:45.538Z,9.20
2023-02-24T08:12:21.297Z,9.20
2023-02-24T08:14:51.776Z,9.20
2023-02-24T08:17:29.087Z,9.20
2023-02-24T08:20:14.682Z,9.20
2023-02-24T08:22:44.294Z,9.20
2023-02-24T08:25:18.224Z,9.20
2023-02-24T08:28:05.120Z,9.20
2023-02-24T08:30:38.744Z,9.20
2023-02-24T08:33:08.296Z,9.20
2023-02-24T08:35:37.969Z,9.20
2023-02-24T08:38:08.049Z,9.30
2023-02-24T08:40:38.044Z,9.20
2023-02-24T08:43:16.575Z,9.30
2023-02-24T08:46:00.993Z,9.30
2023-02-24T08:48:37.683Z,9.30
2023-02-24T08:51:04.633Z,9.30
2023-02-24T08:53:31.914Z,9.30
2023-02-24T08:56:09.333Z,9.30
2023-02-24T08:58:41.221Z,9.40
2023-02-24T09:01:19.176Z,9.40
2023-02-24T09:03:48.233Z,9.50
2023-02-24T09:06:25.196Z,9.50
2023-02-24T09:09:13.512Z,9.50
2023-02-24T09:11:44.130Z,9.50
2023-02-24T09:14:27.001Z,9.60
2023-02-24T09:17:03.133Z,9.60
2023-02-24T09:19:49.554Z,9.70
2023-02-24T09:22:37.580Z,9.70
2023-02-24T09:25:17.923Z,9.70
2023-02-24T09:27:52.555Z,9.70
2023-02-24T09:30:37.074Z,9.70
2023-02-24T09:33:17.695Z,9.80
2023-02-24T09:35:50.446Z,9.80
2023-02-24T09:38:19.674Z,9.90
2023-02-24T09:40:49.439Z,9.80
2023-02-24T09:43:25.568Z,9.90
2023-02-24T09:46:14.413Z,9.80
2023-02-24T09:49:05.268Z,9.80
2023-02-24T09:51:42.252Z,9.80
2023-02-24T09:54:18.937Z,9.90
2023-02-24T09:57:08.413Z,9.90
2023-02-24T10:00:00.965Z,9.90
2023-02-24T10:02:44.543Z,10.00
2023-02-24T10:05:38.282Z,10.10
2023-02-24T10:08:13.718Z,10.20
2023-02-24T10:11:00.615Z,10.20
2023-02-24T10:13:32.571Z,10.20
2023-02-24T10:16:06.987Z,10.30
2023-02-24T10:19:11.676Z,10.30
2023-02-24T10:22:03.135Z,10.30
2023-02-24T10:24:47.358Z,10.40
2023-02-24T10:27:24.002Z,10.40
2023-02-24T10:30:05.875Z,10.50
2023-02-24T10:33:00.203Z,10.50
2023-02-24T10:35:33.596Z,10.50
2023-02-24T10:38:05.356Z,10.60
2023-02-24T10:40:45.048Z,10.60
2023-02-24T10:43:18.880Z,10.60
2023-02-24T10:45:46.779Z,10.70
2023-02-24T10:48:40.643Z,10.60
2023-02-24T10:51:22.868Z,10.70
2023-02-24T10:54:09.543Z,10.60
2023-02-24T10:56:55.132Z,10.60
2023-02-24T10:59:24.836Z,10.60
2023-02-24T11:02:24.683Z,10.60
2023-02-24T11:05:04.363Z,10.60
2023-02-24T11:07:53.643Z,10.50
2023-02-24T11:10:32.305Z,10.50
2023-02-24T11:13:19.325Z,10.50
2023-02-24T11:16:08.197Z,10.40
2023-02-24T11:18:36.047Z,10.40
2023-02-24T11:21:06.342Z,10.30
2023-02-24T11:23:39.203Z,10.20
2023-02-24T11:26:27.045Z,10.10
2023-02-24T11:29:07.894Z,10.00
2023-02-24T11:31:53.681Z,10.00
2023-02-24T11:34:39.413Z,10.00
2023-02-24T11:37:22.756Z,10.00
2023-02-24T11:39:55.372Z,10.00
2023-02-24T11:42:32.383Z,10.00
2023-02-24T11:45:19.187Z,10.00
2023-02-24T11:47:53.103Z,10.00
2023-02-24T11:50:49.414Z,10.00
2023-02-24T11:53:34.439Z,10.10
2023-02-24T11:56:23.767Z,10.10
2023-02-24T11:59:03.047Z,10.20
2023-02-24T12:01:51.826Z,10.30
2023-02-24T12:04:25.223Z,10.30
2023-02-24T12:07:14.352Z,10.40
2023-02-24T12:09:50.747Z,10.50
2023-02-24T12:12:28.006Z,10.50
2023-02-24T12:14:58.930Z,10.60
2023-02-24T12:17:44.284Z,10.70
2023-02-24T12:20:27.940Z,10.80
2023-02-24T12:23:15.801Z,10.90
2023-02-24T12:26:06.817Z,11.00
2023-02-24T12:29:16.091Z,11.10
2023-02-24T12:32:17.306Z,11.20
2023-02-24T12:35:03.375Z,11.30
2023-02-24T12:37:48.775Z,11.30
2023-02-24T12:40:27.683Z,11.40
2023-02-24T12:43:36.190Z,11.40
2023-02-24T12:46:17.698Z,11.40
2023-02-24T12:48:53.525Z,11.40
2023-02-24T12:51:28.352Z,11.40
2023-02-24T12:54:14.017Z,11.40
2023-02-24T12:56:52.928Z,11.50
2023-02-24T12:59:25.533Z,11.50
2023-02-24T13:02:04.257Z,11.50
2023-02-24T13:04:49.114Z,11.40
2023-02-24T13:07:35.626Z,11.40
2023-02-24T13:10:12.301Z,11.40
2023-02-24T13:12:43.919Z,11.40
2023-02-24T13:15:25.264Z,11.30
2023-02-24T13:17:55.281Z,11.40
2023-02-24T13:20:42.838Z,11.40
2023-02-24T13:23:22.419Z,11.50
2023-02-24T13:25:54.390Z,11.50
2023-02-24T13:28:36.385Z,11.50
2023-02-24T13:31:12.537Z,11.50
2023-02-24T13:33:42.416Z,11.50
2023-02-24T13:36:24.535Z,11.50
2023-02-24T13:38:52.202Z,11.50
2023-02-24T13:41:27.758Z,11.40
2023-02-24T13:43:58.419Z,11.40
2023-02-24T13:46:28.440Z,11.40
2023-02-24T13:49:24.034Z,11.40
2023-02-24T13:52:07.767Z,11.30
2023-02-24T13:54:54.185Z,11.30
2023-02-24T13:57:42.717Z,11.30
2023-02-24T14:00:22.053Z,11.30
2023-02-24T14:02:52.837Z,11.30
2023-02-24T14:05:32.131Z,11.20
2023-02-24T14:07:59.877Z,11.20
2023-02-24T14:10:29.779Z,11.20
2023-02-24T14:13:15.484Z,11.20
2023-02-24T14:15:45.258Z,11.10
2023-02-24T14:18:41.621Z,11.10
2023-02-24T14:21:21.511Z,11.10
2023-02-24T14:23:56.164Z,11.10
2023-02-24T14:26:23.672Z,11.10
2023-02-24T14:29:01.547Z,11.10
2023-02-24T14:31:30.297Z,11.10
2023-02-24T14:34:02.591Z,11.00
2023-02-24T14:36:35.630Z,11.00
2023-02-24T14:39:29.358Z,11.00
2023-02-24T14:42:13.113Z,11.00
2023-02-24T14:44:46.436Z,11.00
2023-02-24T14:47:15.367Z,11.00
2023-02-24T14:49:52.162Z,11.00
2023-02-24T14:52:26.763Z,11.00
2023-02-24T14:54:59.805Z,10.90
2023-02-24T14:57:33.772Z,10.90
2023-02-24T15:00:10.850Z,10.90
2023-02-24T15:02:42.929Z,10.90
2023-02-24T15:05:11.519Z,10.90
2023-02-24T15:07:39.294Z,10.80
2023-02-24T15:10:07.125Z,10.80
2023-02-24T15:12:46.146Z,10.80
2023-02-24T15:15:20.385Z,10.80
2023-02-24T15:17:55.644Z,10.70
2023-02-24T15:20:28.600Z,10.70
2023-02-24T15:22:55.900Z,10.70
2023-02-24T15:25:43.045Z,10.70
2023-02-24T15:28:24.947Z,10.70
2023-02-24T15:31:18.677Z,10.70
2023-02-24T15:33:54.549Z,10.70
2023-02-24T15:36:25.406Z,10.70
2023-02-24T15:38:56.702Z,10.60
2023-02-24T15:41:23.507Z,10.70
2023-02-24T15:43:53.137Z,10.70
2023-02-24T15:46:27.711Z,10.70
2023-02-24T15:49:01.817Z,10.60
2023-02-24T15:51:47.178Z,10.60
2023-02-24T15:54:30.705Z,10.70
2023-02-24T15:56:59.422Z,10.60
2023-02-24T15:59:26.656Z,10.60
2023-02-24T16:01:53.780Z,10.60
2023-02-24T16:04:21.870Z,10.60
2023-02-24T16:06:56.583Z,10.60
2023-02-24T16:09:36.273Z,10.60
2023-02-24T16:12:08.091Z,10.60
2023-02-24T16:14:35.199Z,10.50
2023-02-24T16:17:06.587Z,10.50
2023-02-24T16:19:33.445Z,10.50
2023-02-24T16:22:00.247Z,10.40
2023-02-24T16:24:27.099Z,10.40
2023-02-24T16:26:53.912Z,10.30
2023-02-24T16:29:20.727Z,10.30
2023-02-24T16:31:47.695Z,10.20
2023-02-24T16:34:16.038Z,10.20
2023-02-24T16:36:44.055Z,10.10
2023-02-24T16:39:14.094Z,10.10
2023-02-24T16:41:40.962Z,10.10
2023-02-24T16:44:07.930Z,10.10
2023-02-24T16:46:38.016Z,10.00
2023-02-24T16:49:08.222Z,10.00
2023-02-24T16:51:35.555Z,10.00
2023-02-24T16:54:02.418Z,9.90
2023-02-24T16:56:29.155Z,9.90
2023-02-24T16:58:55.908Z,9.90
2023-02-24T17:01:22.773Z,9.80
2023-02-24T17:03:56.302Z,9.80
2023-02-24T17:06:24.607Z,9.80
2023-02-24T17:08:51.864Z,9.80
2023-02-24T17:11:21.015Z,9.80
2023-02-24T17:13:47.965Z,9.80
2023-02-24T17:16:14.774Z,9.70
2023-02-24T17:18:41.857Z,9.70
2023-02-24T17:21:12.580Z,9.70
2023-02-24T17:23:39.356Z,9.70
2023-02-24T17:26:06.176Z,9.60
2023-02-24T17:28:33.083Z,9.60
2023-02-24T17:31:00.002Z,9.50
2023-02-24T17:33:26.788Z,9.50
2023-02-24T17:35:53.540Z,9.50
2023-02-24T17:38:23.174Z,9.50
2023-02-24T17:40:50.007Z,9.50
2023-02-24T17:43:16.790Z,9.40
2023-02-24T17:45:45.576Z,9.40
2023-02-24T17:48:13.657Z,9.40
2023-02-24T17:50:45.237Z,9.40
2023-02-24T17:53:12.358Z,9.40
2023-02-24T17:55:55.888Z,9.40
2023-02-24T17:58:26.671Z,9.30
2023-02-24T18:00:53.417Z,9.30
2023-02-24T18:03:20.201Z,9.20
2023-02-24T18:05:47.050Z,9.20
2023-02-24T18:08:14.601Z,9.10
2023-02-24T18:10:41.418Z,9.20
2023-02-24T18:13:08.216Z,9.10
2023-02-24T18:15:35.036Z,9.10
2023-02-24T18:18:01.795Z,9.00
2023-02-24T18:20:30.531Z,9.00
2023-02-24T18:22:57.433Z,9.00
2023-02-24T18:25:24.146Z,9.00
2023-02-24T18:27:50.895Z,9.00
2023-02-24T18:30:18.612Z,9.00
2023-02-24T18:32:45.863Z,9.00
2023-02-24T18:35:14.337Z,9.00
2023-02-24T18:37:41.153Z,9.00
2023-02-24T18:40:08.856Z,8.90
2023-02-24T18:42:35.609Z,8.90
2023-02-24T18:45:02.586Z,8.90
2023-02-24T18:47:29.497Z,8.90
2023-02-24T18:49:56.217Z,8.90
2023-02-24T18:52:22.971Z,8.90
2023-02-24T18:54:49.808Z,8.90
2023-02-24T18:57:16.510Z,8.90
2023-02-24T18:59:43.602Z,8.90
2023-02-24T19:02:10.717Z,8.80
2023-02-24T19:04:37.623Z,8.80
2023-02-24T19:07:04.504Z,8.80
2023-02-24T19:09:31.253Z,8.80
2023-02-24T19:11:57.960Z,8.80
2023-02-24T19:14:24.791Z,8.70
2023-02-24T19:16:51.766Z,8.70
2023-02-24T19:19:18.620Z,8.70
2023-02-24T19:21:45.735Z,8.70
2023-02-24T19:24:13.774Z,8.70
2023-02-24T19:26:42.592Z,8.60
2023-02-24T19:29:10.174Z,8.60
2023-02-24T19:31:38.316Z,8.60
2023-02-24T19:34:08.243Z,8.50
2023-02-24T19:36:36.746Z,8.50
2023-02-24T19:39:05.112Z,8.40
2023-02-24T19:41:32.056Z,8.40
2023-02-24T19:43:59.193Z,8.40
2023-02-24T19:46:26.416Z,8.40
2023-02-24T19:48:55.619Z,8.40
2023-02-24T19:51:24.259Z,8.30
2023-02-24T19:53:59.999Z,8.30
2023-02-24T19:56:29.076Z,8.30
2023-02-24T19:58:57.566Z,8.20
2023-02-24T20:01:26.878Z,8.20
2023-02-24T20:03:59.487Z,8.20
2023-02-24T20:06:31.481Z,8.20
2023-02-24T20:08:58.738Z,8.20
2023-02-24T20:11:28.567Z,8.20
2023-02-24T20:13:55.859Z,8.20
2023-02-24T20:16:25.264Z,8.20
2023-02-24T20:18:54.707Z,8.10
2023-02-24T20:21:21.591Z,8.10
2023-02-24T20:23:48.414Z,8.00
2023-02-24T20:26:16.208Z,8.00
2023-02-24T20:28:44.721Z,7.90
2023-02-24T20:31:15.469Z,7.90
2023-02-24T20:33:43.689Z,7.80
2023-02-24T20:36:13.793Z,7.80
2023-02-24T20:38:40.795Z,7.80
2023-02-24T20:41:07.702Z,7.80
2023-02-24T20:43:34.531Z,7.80
2023-02-24T20:46:11.824Z,7.70
2023-02-24T20:48:38.564Z,7.70
2023-02-24T20:51:05.793Z,7.60
2023-02-24T20:53:32.746Z,7.60
2023-02-24T20:56:07.435Z,7.60
2023-02-24T20:58:34.372Z,7.60
2023-02-24T21:01:01.222Z,7.60
2023-02-24T21:03:28.126Z,7.50
2023-02-24T21:06:08.855Z,7.50
2023-02-24T21:08:36.831Z,7.50
2023-02-24T21:11:03.892Z,7.50
2023-02-24T21:13:30.754Z,7.50
2023-02-24T21:15:57.524Z,7.40
2023-02-24T21:18:24.351Z,7.40
2023-02-24T21:20:53.605Z,7.40
2023-02-24T21:23:21.764Z,7.40
2023-02-24T21:25:55.352Z,7.40
2023-02-24T21:28:23.320Z,7.30
2023-02-24T21:30:50.880Z,7.30
2023-02-24T21:33:18.976Z,7.30
2023-02-24T21:35:57.368Z,7.30
2023-02-24T21:38:24.342Z,7.30
2023-02-24T21:40:51.094Z,7.20
2023-02-24T21:43:17.969Z,7.30
2023-02-24T21:45:45.513Z,7.30
2023-02-24T21:48:12.282Z,7.30
2023-02-24T21:50:39.042Z,7.20
2023-02-24T21:53:06.159Z,7.10
2023-02-24T21:55:34.014Z,7.20
2023-02-24T21:58:00.817Z,7.20
2023-02-24T22:00:28.554Z,7.20
2023-02-24T22:02:55.844Z,7.20
2023-02-24T22:05:25.182Z,7.10
2023-02-24T22:07:52.506Z,7.00
2023-02-24T22:10:21.387Z,6.70
2023-02-24T22:12:49.040Z,6.50
2023-02-24T22:15:16.563Z,6.30
2023-02-24T22:17:43.345Z,6.10
2023-02-24T22:20:13.441Z,6.00
2023-02-24T22:22:41.930Z,5.90
2023-02-24T22:25:12.736Z,5.80
2023-02-24T22:27:39.601Z,5.70
2023-02-24T22:30:07.915Z,5.70
2023-02-24T22:32:36.121Z,5.70
2023-02-24T22:35:03.311Z,5.60
2023-02-24T22:37:30.134Z,5.60
2023-02-24T22:39:56.899Z,5.70
2023-02-24T22:42:23.619Z,5.70
2023-02-24T22:44:50.411Z,5.60
2023-02-24T22:47:17.299Z,5.70
2023-02-24T22:49:44.187Z,5.70
2023-02-24T22:52:11.667Z,5.70
2023-02-24T22:54:38.564Z,5.70
2023-02-24T22:57:05.366Z,5.70
2023-02-24T22:59:32.946Z,5.70
2023-02-24T23:01:59.770Z,5.70
2023-02-24T23:04:29.284Z,5.70
2023-02-24T23:06:57.155Z,5.80
2023-02-24T23:09:24.458Z,5.80
2023-02-24T23:11:51.237Z,5.80
2023-02-24T23:14:18.265Z,5.80
2023-02-24T23:16:47.278Z,5.80
2023-02-24T23:19:20.844Z,5.80
2023-02-24T23:21:50.798Z,5.80
2023-02-24T23:24:19.541Z,5.80
2023-02-24T23:26:54.276Z,5.80
2023-02-24T23:29:22.576Z,5.80
2023-02-24T23:31:50.092Z,5.80
2023-02-24T23:34:17.044Z,5.90
2023-02-24T23:36:46.035Z,5.90
2023-02-24T23:39:15.170Z,5.90
2023-02-24T23:41:42.223Z,5.90
2023-02-24T23:44:09.537Z,5.90
2023-02-24T23:46:36.739Z,5.90
2023-02-24T23:49:04.622Z,5.90
2023-02-24T23:51:47.216Z,5.90
2023-02-24T23:54:16.125Z,5.90
2023-02-24T23:56:42.930Z,5.90
2023-02-24T23:59:09.751Z,5.80
